createdAt,value
2023-03-05T00:00:57.442Z,21.80
2023-03-05T00:03:25.163Z,21.70
2023-03-05T00:05:58.509Z,21.70
2023-03-05T00:08:26.278Z,21.70
2023-03-05T00:10:57.736Z,21.70
2023-03-05T00:13:25.527Z,21.70
2023-03-05T00:15:53.258Z,21.60
2023-03-05T00:18:21.102Z,21.60
2023-03-05T00:20:48.797Z,21.60
2023-03-05T00:23:17.790Z,21.60
2023-03-05T00:25:46.519Z,21.60
2023-03-05T00:28:14.294Z,21.60
2023-03-05T00:30:41.967Z,21.50
2023-03-05T00:33:09.816Z,21.50
2023-03-05T00:35:41.118Z,21.50
2023-03-05T00:38:08.886Z,21.50
2023-03-05T00:40:38.671Z,21.50
2023-03-05T00:43:06.418Z,21.50
2023-03-05T00:45:34.579Z,21.50
2023-03-05T00:48:02.284Z,21.40
2023-03-05T00:50:30.022Z,21.40
2023-03-05T00:52:57.672Z,21.40
2023-03-05T00:55:25.322Z,21.40
2023-03-05T00:57:54.320Z,21.40
2023-03-05T01:00:22.421Z,21.40
2023-03-05T01:02:50.097Z,21.30
2023-03-05T01:05:17.763Z,21.40
2023-03-05T01:07:45.464Z,21.30
2023-03-05T01:10:13.309Z,21.30
2023-03-05T01:12:41.013Z,21.30
2023-03-05T01:15:10.898Z,21.30
2023-03-05T01:17:38.621Z,21.20
2023-03-05T01:20:07.244Z,21.20
2023-03-05T01:22:34.970Z,21.20
2023-03-05T01:25:02.679Z,21.20
2023-03-05T01:27:30.388Z,21.20
2023-03-05T01:29:58.075Z,21.20
2023-03-05T01:32:27.434Z,21.10
2023-03-05T01:34:55.137Z,21.10
2023-03-05T01:37:22.935Z,21.10
2023-03-05T01:39:50.898Z,21.10
2023-03-05T01:42:19.362Z,21.10
2023-03-05T01:45:01.248Z,21.10
2023-03-05T01:47:30.879Z,21.10
2023-03-05T01:49:58.582Z,21.10
2023-03-05T01:52:26.279Z,21.00
2023-03-05T01:54:55.236Z,21.00
2023-03-05T01:57:24.835Z,21.00
2023-03-05T01:59:54.416Z,21.00
2023-03-05T02:02:22.958Z,21.10
2023-03-05T02:04:54.296Z,21.00
2023-03-05T02:07:21.999Z,21.10
2023-03-05T02:09:49.746Z,21.00
2023-03-05T02:12:17.429Z,21.00
2023-03-05T02:14:47.208Z,21.00
2023-03-05T02:17:14.909Z,21.00
2023-03-05T02:19:54.293Z,21.00
2023-03-05T02:22:23.982Z,21.00
2023-03-05T02:24:52.958Z,21.00
2023-03-05T02:27:22.172Z,21.00
2023-03-05T02:29:49.945Z,21.00
2023-03-05T02:32:17.668Z,21.00
2023-03-05T02:34:45.440Z,20.90
2023-03-05T02:37:13.310Z,20.90
2023-03-05T02:39:42.317Z,20.90
2023-03-05T02:42:11.228Z,20.90
2023-03-05T02:44:39.812Z,20.90
2023-03-05T02:47:07.890Z,20.90
2023-03-05T02:49:36.325Z,20.80
2023-03-05T02:52:04.821Z,20.80
2023-03-05T02:54:32.526Z,20.90
2023-03-05T02:57:01.569Z,20.90
2023-03-05T02:59:29.842Z,20.90
2023-03-05T03:01:57.644Z,20.80
2023-03-05T03:04:25.833Z,20.80
2023-03-05T03:06:53.527Z,20.80
2023-03-05T03:09:21.323Z,20.80
2023-03-05T03:11:48.969Z,20.70
2023-03-05T03:14:17.979Z,20.80
2023-03-05T03:16:45.747Z,20.70
2023-03-05T03:19:13.727Z,20.70
2023-03-05T03:21:41.412Z,20.80
2023-03-05T03:24:09.158Z,20.70
2023-03-05T03:26:36.860Z,20.70
2023-03-05T03:29:04.522Z,20.70
2023-03-05T03:31:33.535Z,20.70
2023-03-05T03:34:01.215Z,20.70
2023-03-05T03:36:28.972Z,20.60
2023-03-05T03:38:56.653Z,20.70
2023-03-05T03:41:24.382Z,20.70
2023-03-05T03:43:52.106Z,20.70
2023-03-05T03:46:19.817Z,20.60
2023-03-05T03:48:52.180Z,20.70
2023-03-05T03:51:19.853Z,20.70
2023-03-05T03:53:47.659Z,20.70
2023-03-05T03:56:15.324Z,20.60
2023-03-05T03:58:43.011Z,20.70
2023-03-05T04:01:10.715Z,20.70
2023-03-05T04:03:38.366Z,20.70
2023-03-05T04:06:07.939Z,20.60
2023-03-05T04:08:35.624Z,20.60
2023-03-05T04:11:03.390Z,20.60
2023-03-05T04:13:31.126Z,20.50
2023-03-05T04:15:58.874Z,20.50
2023-03-05T04:18:26.579Z,20.50
2023-03-05T04:20:54.282Z,20.50
2023-03-05T04:23:23.286Z,20.50
2023-03-05T04:25:50.987Z,20.50
2023-03-05T04:28:18.764Z,20.50
2023-03-05T04:30:46.619Z,20.50
2023-03-05T04:33:14.301Z,20.40
2023-03-05T04:35:42.069Z,20.40
2023-03-05T04:38:09.761Z,20.40
2023-03-05T04:40:38.762Z,20.30
2023-03-05T04:43:06.633Z,20.40
2023-03-05T04:45:34.439Z,20.40
2023-03-05T04:48:02.291Z,20.40
2023-03-05T04:50:29.992Z,20.30
2023-03-05T04:52:57.741Z,20.30
2023-03-05T04:55:25.434Z,20.30
2023-03-05T04:57:54.528Z,20.30
2023-03-05T05:00:22.984Z,20.30
2023-03-05T05:02:51.791Z,20.20
2023-03-05T05:05:20.359Z,20.20
2023-03-05T05:07:48.074Z,20.20
2023-03-05T05:10:15.957Z,20.20
2023-03-05T05:12:43.684Z,20.20
2023-03-05T05:15:13.876Z,20.20
2023-03-05T05:17:41.599Z,20.20
2023-03-05T05:20:11.773Z,20.20
2023-03-05T05:22:39.488Z,20.20
2023-03-05T05:25:07.486Z,20.20
2023-03-05T05:27:35.180Z,20.20
2023-03-05T05:30:03.994Z,20.20
2023-03-05T05:32:33.060Z,20.20
2023-03-05T05:35:00.862Z,20.20
2023-03-05T05:37:28.603Z,20.20
2023-03-05T05:39:56.291Z,20.20
2023-03-05T05:42:24.586Z,20.20
2023-03-05T05:44:52.300Z,20.20
2023-03-05T05:47:20.137Z,20.10
2023-03-05T05:49:49.171Z,20.10
2023-03-05T05:52:17.035Z,20.10
2023-03-05T05:54:44.727Z,20.00
2023-03-05T05:57:12.443Z,20.00
2023-03-05T05:59:40.184Z,20.00
2023-03-05T06:02:08.068Z,20.00
2023-03-05T06:04:36.043Z,20.00
2023-03-05T06:07:05.320Z,20.00
2023-03-05T06:09:32.989Z,20.00
2023-03-05T06:12:00.730Z,20.00
2023-03-05T06:14:28.543Z,19.90
2023-03-05T06:16:56.233Z,19.90
2023-03-05T06:19:23.939Z,19.90
2023-03-05T06:21:51.650Z,19.90
2023-03-05T06:24:20.633Z,19.90
2023-03-05T06:26:49.039Z,19.90
2023-03-05T06:29:16.774Z,19.90
2023-03-05T06:31:44.456Z,19.90
2023-03-05T06:34:12.201Z,19.90
2023-03-05T06:36:40.372Z,19.80
2023-03-05T06:39:08.147Z,19.80
2023-03-05T06:41:37.209Z,19.90
2023-03-05T06:44:04.994Z,19.90
2023-03-05T06:46:33.411Z,19.90
2023-03-05T06:49:02.258Z,19.90
2023-03-05T06:51:31.119Z,19.90
2023-03-05T06:54:01.038Z,19.90
2023-03-05T06:56:28.798Z,19.90
2023-03-05T06:58:58.023Z,19.90
2023-03-05T07:01:25.741Z,19.90
2023-03-05T07:03:54.047Z,19.90
2023-03-05T07:06:21.976Z,19.90
2023-03-05T07:08:49.732Z,19.90
2023-03-05T07:11:20.203Z,19.90
2023-03-05T07:13:48.508Z,19.90
2023-03-05T07:16:18.468Z,19.90
2023-03-05T07:18:46.303Z,19.90
2023-03-05T07:21:16.017Z,19.90
2023-03-05T07:23:43.698Z,19.90
2023-03-05T07:26:11.825Z,19.90
2023-03-05T07:28:39.559Z,19.80
2023-03-05T07:31:08.125Z,19.90
2023-03-05T07:33:37.332Z,19.90
2023-03-05T07:36:05.468Z,19.90
2023-03-05T07:38:33.219Z,19.90
2023-03-05T07:41:03.367Z,19.90
2023-03-05T07:43:31.084Z,19.90
2023-03-05T07:45:58.827Z,19.90
2023-03-05T07:48:26.651Z,19.90
2023-03-05T07:51:02.626Z,19.90
2023-03-05T07:53:30.356Z,19.90
2023-03-05T07:55:58.055Z,19.80
2023-03-05T07:58:25.759Z,19.80
2023-03-05T08:00:53.485Z,19.80
2023-03-05T08:03:21.196Z,19.80
2023-03-05T08:05:49.045Z,19.80
2023-03-05T08:08:18.542Z,19.80
2023-03-05T08:10:46.280Z,19.80
2023-03-05T08:13:13.984Z,19.70
2023-03-05T08:15:41.889Z,19.80
2023-03-05T08:18:09.587Z,19.80
2023-03-05T08:20:37.300Z,19.80
2023-03-05T08:23:04.991Z,19.80
2023-03-05T08:25:33.999Z,19.80
2023-03-05T08:28:01.662Z,19.80
2023-03-05T08:30:29.337Z,19.80
2023-03-05T08:32:57.310Z,19.80
2023-03-05T08:35:25.086Z,19.80
2023-03-05T08:37:52.894Z,19.80
2023-03-05T08:40:20.723Z,19.80
2023-03-05T08:42:51.837Z,19.90
2023-03-05T08:45:19.640Z,19.90
2023-03-05T08:47:47.315Z,19.90
2023-03-05T08:50:15.001Z,19.90
2023-03-05T08:52:42.698Z,19.90
2023-03-05T08:55:12.331Z,20.10
2023-03-05T08:57:40.050Z,20.10
2023-03-05T09:00:12.497Z,20.20
2023-03-05T09:02:40.358Z,20.30
2023-03-05T09:05:09.100Z,20.40
2023-03-05T09:07:37.760Z,20.50
2023-03-05T09:10:05.887Z,20.60
2023-03-05T09:12:33.552Z,20.70
2023-03-05T09:15:01.217Z,20.80
2023-03-05T09:17:30.233Z,20.90
2023-03-05T09:19:57.968Z,21.00
2023-03-05T09:22:25.636Z,21.10
2023-03-05T09:24:53.514Z,21.10
2023-03-05T09:27:21.205Z,21.20
2023-03-05T09:29:49.002Z,21.20
2023-03-05T09:32:16.954Z,21.30
2023-03-05T09:34:45.994Z,21.30
2023-03-05T09:37:13.701Z,21.50
2023-03-05T09:39:41.361Z,21.50
2023-03-05T09:42:20.215Z,21.60
2023-03-05T09:44:51.742Z,21.70
2023-03-05T09:47:27.447Z,21.70
2023-03-05T09:49:59.913Z,21.80
2023-03-05T09:52:34.389Z,21.80
2023-03-05T09:55:02.480Z,21.90
2023-03-05T09:57:33.111Z,21.70
2023-03-05T10:00:01.936Z,21.70
2023-03-05T10:02:40.884Z,21.70
2023-03-05T10:05:14.344Z,21.70
2023-03-05T10:07:44.335Z,21.70
2023-03-05T10:10:14.160Z,21.70
2023-03-05T10:12:43.167Z,21.80
2023-03-05T10:15:13.502Z,21.80
2023-03-05T10:17:59.921Z,21.80
2023-03-05T10:20:47.216Z,21.80
2023-03-05T10:23:29.210Z,21.80
2023-03-05T10:26:09.066Z,21.80
2023-03-05T10:28:41.416Z,21.90
2023-03-05T10:31:25.642Z,21.90
2023-03-05T10:33:58.951Z,21.90
2023-03-05T10:36:33.133Z,22.00
2023-03-05T10:39:29.009Z,22.00
2023-03-05T10:42:02.339Z,22.00
2023-03-05T10:44:34.085Z,22.00
2023-03-05T10:47:01.791Z,22.00
2023-03-05T10:49:30.745Z,22.10
2023-03-05T10:52:00.594Z,22.20
2023-03-05T10:54:29.649Z,22.30
2023-03-05T10:57:04.873Z,22.30
2023-03-05T10:59:33.106Z,22.40
2023-03-05T11:02:04.920Z,22.50
2023-03-05T11:04:35.941Z,22.60
2023-03-05T11:07:09.205Z,22.70
2023-03-05T11:09:36.851Z,22.80
2023-03-05T11:12:15.602Z,22.90
2023-03-05T11:14:44.311Z,23.00
2023-03-05T11:17:35.961Z,23.00
2023-03-05T11:20:29.995Z,23.00
2023-03-05T11:23:06.664Z,23.00
2023-03-05T11:25:34.540Z,23.00
2023-03-05T11:28:02.789Z,23.00
2023-03-05T11:30:32.020Z,23.00
2023-03-05T11:33:10.561Z,23.00
2023-03-05T11:35:39.252Z,23.00
2023-03-05T11:38:16.023Z,23.00
2023-03-05T11:40:43.738Z,23.00
2023-03-05T11:43:14.137Z,23.00
2023-03-05T11:45:42.159Z,23.00
2023-03-05T11:48:12.947Z,23.10
2023-03-05T11:50:41.913Z,23.10
2023-03-05T11:53:13.997Z,23.10
2023-03-05T11:55:42.620Z,23.10
2023-03-05T11:58:25.669Z,23.10
2023-03-05T12:00:53.489Z,23.10
2023-03-05T12:03:22.429Z,23.10
2023-03-05T12:05:51.807Z,23.10
2023-03-05T12:08:25.434Z,23.10
2023-03-05T12:10:53.205Z,23.20
2023-03-05T12:13:24.323Z,23.20
2023-03-05T12:16:01.910Z,23.20
2023-03-05T12:18:34.891Z,23.20
2023-03-05T12:21:06.160Z,23.20
2023-03-05T12:23:47.466Z,23.20
2023-03-05T12:26:15.387Z,23.10
2023-03-05T12:28:57.009Z,23.00
2023-03-05T12:31:37.738Z,23.00
2023-03-05T12:34:46.818Z,22.90
2023-03-05T12:37:15.015Z,22.90
2023-03-05T12:39:52.605Z,22.80
2023-03-05T12:42:46.016Z,22.60
2023-03-05T12:45:37.115Z,22.70
2023-03-05T12:48:41.938Z,22.70
2023-03-05T12:51:13.783Z,22.60
2023-03-05T12:53:41.474Z,22.50
2023-03-05T12:56:19.244Z,22.40
2023-03-05T12:58:48.144Z,22.30
2023-03-05T13:01:23.887Z,22.20
2023-03-05T13:03:53.884Z,22.10
2023-03-05T13:06:26.679Z,22.00
2023-03-05T13:08:58.719Z,21.90
2023-03-05T13:11:28.555Z,21.90
2023-03-05T13:13:56.273Z,21.80
2023-03-05T13:16:25.349Z,21.90
2023-03-05T13:18:53.920Z,21.80
2023-03-05T13:21:24.722Z,21.90
2023-03-05T13:23:57.828Z,21.90
2023-03-05T13:26:27.431Z,21.40
2023-03-05T13:29:08.534Z,21.00
2023-03-05T13:31:36.645Z,20.80
2023-03-05T13:34:10.186Z,20.70
2023-03-05T13:36:38.169Z,20.70
2023-03-05T13:39:07.399Z,20.80
2023-03-05T13:41:36.393Z,21.00
2023-03-05T13:44:04.102Z,21.20
2023-03-05T13:46:32.754Z,21.80
2023-03-05T13:49:19.279Z,21.70
2023-03-05T13:51:47.926Z,21.80
2023-03-05T13:54:16.804Z,21.80
2023-03-05T13:56:56.638Z,21.90
2023-03-05T13:59:24.979Z,21.90
2023-03-05T14:01:52.896Z,21.90
2023-03-05T14:04:22.725Z,21.80
2023-03-05T14:06:51.345Z,21.80
2023-03-05T14:09:21.002Z,21.80
2023-03-05T14:12:00.739Z,21.80
2023-03-05T14:14:28.701Z,21.80
2023-03-05T14:16:56.484Z,21.80
2023-03-05T14:19:34.605Z,21.90
2023-03-05T14:22:02.690Z,21.90
2023-03-05T14:24:31.329Z,21.90
2023-03-05T14:27:03.259Z,21.90
2023-03-05T14:29:31.075Z,21.90
2023-03-05T14:31:59.791Z,21.90
2023-03-05T14:34:29.901Z,21.90
2023-03-05T14:36:59.092Z,21.90
2023-03-05T14:39:31.952Z,21.90
2023-03-05T14:42:27.292Z,21.90
2023-03-05T14:44:55.656Z,21.90
2023-03-05T14:47:23.439Z,21.90
2023-03-05T14:49:51.182Z,21.80
2023-03-05T14:52:19.556Z,21.80
2023-03-05T14:54:47.447Z,21.80
2023-03-05T14:57:16.688Z,21.80
2023-03-05T14:59:45.707Z,21.80
2023-03-05T15:02:17.295Z,21.90
2023-03-05T15:04:45.624Z,21.90
2023-03-05T15:07:18.485Z,21.90
2023-03-05T15:09:46.215Z,21.90
2023-03-05T15:12:14.571Z,21.90
2023-03-05T15:14:43.398Z,22.00
2023-03-05T15:17:20.642Z,22.00
2023-03-05T15:19:48.468Z,22.00
2023-03-05T15:22:16.344Z,21.90
2023-03-05T15:24:44.522Z,21.90
2023-03-05T15:27:12.390Z,21.80
2023-03-05T15:29:40.059Z,21.70
2023-03-05T15:32:08.126Z,21.70
2023-03-05T15:34:37.312Z,21.70
2023-03-05T15:37:05.195Z,21.70
2023-03-05T15:39:32.908Z,21.80
2023-03-05T15:42:00.679Z,21.80
2023-03-05T15:44:28.511Z,21.80
2023-03-05T15:46:57.531Z,21.80
2023-03-05T15:49:25.889Z,21.90
2023-03-05T15:51:56.844Z,21.90
2023-03-05T15:54:24.522Z,21.90
2023-03-05T15:56:53.021Z,21.90
2023-03-05T15:59:20.868Z,21.90
2023-03-05T16:01:49.941Z,21.90
2023-03-05T16:04:18.066Z,21.90
2023-03-05T16:06:46.043Z,21.80
2023-03-05T16:09:15.315Z,21.90
2023-03-05T16:11:47.709Z,21.90
2023-03-05T16:14:17.238Z,21.90
2023-03-05T16:16:44.968Z,21.90
2023-03-05T16:19:13.201Z,21.80
2023-03-05T16:21:40.893Z,21.70
2023-03-05T16:24:08.630Z,21.70
2023-03-05T16:26:38.337Z,21.60
2023-03-05T16:29:06.127Z,21.60
2023-03-05T16:31:34.954Z,21.20
2023-03-05T16:34:02.755Z,21.20
2023-03-05T16:36:31.074Z,21.10
2023-03-05T16:38:59.561Z,21.00
2023-03-05T16:41:27.596Z,20.90
2023-03-05T16:43:57.391Z,20.80
2023-03-05T16:46:25.336Z,20.60
2023-03-05T16:48:53.169Z,20.50
2023-03-05T16:51:21.066Z,20.50
2023-03-05T16:53:48.770Z,20.40
2023-03-05T16:56:16.707Z,20.30
2023-03-05T16:58:44.414Z,20.30
2023-03-05T17:01:14.598Z,20.30
2023-03-05T17:03:43.429Z,20.20
2023-03-05T17:06:12.470Z,20.10
2023-03-05T17:08:40.282Z,20.00
2023-03-05T17:11:08.075Z,20.00
2023-03-05T17:13:35.896Z,19.90
2023-03-05T17:16:03.695Z,19.90
2023-03-05T17:18:32.801Z,19.80
2023-03-05T17:21:01.542Z,19.80
2023-03-05T17:23:29.264Z,19.70
2023-03-05T17:25:56.988Z,19.70
2023-03-05T17:28:25.053Z,19.70
2023-03-05T17:30:52.734Z,19.80
2023-03-05T17:33:20.425Z,19.90
2023-03-05T17:35:49.787Z,19.80
2023-03-05T17:38:18.278Z,19.90
2023-03-05T17:40:45.931Z,19.70
2023-03-05T17:43:13.594Z,19.80
2023-03-05T17:45:41.296Z,19.90
2023-03-05T17:48:08.988Z,19.90
2023-03-05T17:50:36.703Z,19.90
2023-03-05T17:53:05.730Z,19.90
2023-03-05T17:55:33.415Z,19.90
2023-03-05T17:58:01.164Z,19.90
2023-03-05T18:00:29.924Z,19.90
2023-03-05T18:02:58.757Z,19.90
2023-03-05T18:05:26.655Z,19.80
2023-03-05T18:07:54.799Z,19.80
2023-03-05T18:10:24.678Z,19.80
2023-03-05T18:12:52.403Z,19.80
2023-03-05T18:15:20.804Z,19.80
2023-03-05T18:17:48.473Z,19.80
2023-03-05T18:20:24.366Z,19.80
2023-03-05T18:22:52.026Z,19.80
2023-03-05T18:25:19.943Z,19.80
2023-03-05T18:27:49.087Z,19.80
2023-03-05T18:30:16.933Z,19.80
2023-03-05T18:32:45.390Z,19.80
2023-03-05T18:35:14.062Z,19.80
2023-03-05T18:37:41.719Z,19.70
2023-03-05T18:40:10.920Z,19.70
2023-03-05T18:42:38.646Z,19.70
2023-03-05T18:45:10.189Z,19.70
2023-03-05T18:47:38.960Z,19.70
2023-03-05T18:50:07.953Z,19.70
2023-03-05T18:52:35.638Z,19.70
2023-03-05T18:55:03.292Z,19.70
2023-03-05T18:57:30.940Z,19.70
2023-03-05T18:59:58.624Z,19.70
2023-03-05T19:02:27.637Z,19.60
2023-03-05T19:04:55.318Z,19.60
2023-03-05T19:07:23.050Z,19.60
2023-03-05T19:09:58.121Z,19.60
2023-03-05T19:12:30.810Z,19.60
2023-03-05T19:14:58.564Z,19.60
2023-03-05T19:17:27.598Z,19.60
2023-03-05T19:19:55.649Z,19.60
2023-03-05T19:22:25.120Z,19.60
2023-03-05T19:24:52.773Z,19.60
2023-03-05T19:27:20.454Z,19.60
2023-03-05T19:29:48.637Z,19.60
2023-03-05T19:32:17.534Z,19.60
2023-03-05T19:34:46.586Z,19.60
2023-03-05T19:37:14.443Z,19.50
2023-03-05T19:39:42.211Z,19.50
2023-03-05T19:42:09.930Z,19.50
2023-03-05T19:44:37.663Z,19.50
2023-03-05T19:47:05.385Z,19.50
2023-03-05T19:49:33.142Z,19.50
2023-03-05T19:52:02.201Z,19.50
2023-03-05T19:54:29.907Z,19.50
2023-03-05T19:56:58.811Z,19.50
2023-03-05T19:59:26.562Z,19.50
2023-03-05T20:01:54.441Z,19.50
2023-03-05T20:04:23.060Z,19.50
2023-03-05T20:06:50.844Z,19.50
2023-03-05T20:09:19.886Z,19.40
2023-03-05T20:11:47.843Z,19.40
2023-03-05T20:14:15.670Z,19.40
2023-03-05T20:16:44.060Z,19.40
2023-03-05T20:19:16.077Z,19.40
2023-03-05T20:21:43.945Z,19.40
2023-03-05T20:24:12.949Z,19.40
2023-03-05T20:26:42.685Z,19.40
2023-03-05T20:29:10.616Z,19.40
2023-03-05T20:31:38.452Z,19.40
2023-03-05T20:34:06.765Z,19.40
2023-03-05T20:36:35.370Z,19.50
2023-03-05T20:39:03.597Z,19.50
2023-03-05T20:41:31.280Z,19.50
2023-03-05T20:44:00.325Z,19.50
2023-03-05T20:46:28.763Z,19.50
2023-03-05T20:48:57.709Z,19.50
2023-03-05T20:51:26.388Z,19.60
2023-03-05T20:53:57.792Z,19.70
2023-03-05T20:56:26.841Z,19.70
2023-03-05T20:58:55.179Z,19.70
2023-03-05T21:01:24.177Z,19.80
2023-03-05T21:03:53.564Z,19.80
2023-03-05T21:06:21.371Z,19.90
2023-03-05T21:08:49.022Z,20.00
2023-03-05T21:11:16.886Z,20.00
2023-03-05T21:13:44.611Z,20.00
2023-03-05T21:16:14.490Z,20.10
2023-03-05T21:18:43.499Z,20.10
2023-03-05T21:21:11.186Z,20.10
2023-03-05T21:23:38.833Z,20.20
2023-03-05T21:26:06.770Z,20.20
2023-03-05T21:28:34.671Z,20.30
2023-03-05T21:31:07.130Z,20.40
2023-03-05T21:33:34.868Z,20.40
2023-03-05T21:36:04.507Z,20.40
2023-03-05T21:38:33.911Z,20.40
2023-03-05T21:41:01.768Z,20.50
2023-03-05T21:43:30.983Z,20.50
2023-03-05T21:45:58.971Z,20.50
2023-03-05T21:48:26.825Z,20.50
2023-03-05T21:50:55.057Z,20.50
2023-03-05T21:53:24.328Z,20.60
2023-03-05T21:56:03.991Z,20.60
2023-03-05T21:58:32.064Z,20.70
2023-03-05T22:00:59.867Z,20.70
2023-03-05T22:03:27.910Z,20.70
2023-03-05T22:05:55.659Z,20.80
2023-03-05T22:08:24.866Z,20.80
2023-03-05T22:10:52.675Z,20.80
2023-03-05T22:13:20.554Z,20.80
2023-03-05T22:15:49.010Z,20.90
2023-03-05T22:18:17.570Z,20.90
2023-03-05T22:20:45.327Z,20.90
2023-03-05T22:23:13.202Z,21.00
2023-03-05T22:25:42.278Z,21.00
2023-03-05T22:28:10.520Z,21.10
2023-03-05T22:30:42.818Z,21.20
2023-03-05T22:33:10.981Z,21.20
2023-03-05T22:35:39.637Z,21.30
2023-03-05T22:38:07.371Z,21.30
2023-03-05T22:40:36.841Z,21.30
2023-03-05T22:43:05.888Z,21.40
2023-03-05T22:45:33.689Z,21.40
2023-03-05T22:48:01.354Z,21.50
2023-03-05T22:50:29.021Z,21.60
2023-03-05T22:52:56.690Z,21.60
2023-03-05T22:55:24.361Z,21.70
2023-03-05T22:57:52.017Z,21.70
2023-03-05T23:00:23.394Z,21.70
2023-03-05T23:02:51.322Z,21.80
2023-03-05T23:05:19.237Z,21.90
2023-03-05T23:07:46.983Z,21.90
2023-03-05T23:10:16.133Z,22.00
2023-03-05T23:12:46.111Z,22.00
2023-03-05T23:15:14.981Z,22.10
2023-03-05T23:17:43.987Z,22.10
2023-03-05T23:20:12.507Z,22.20
2023-03-05T23:22:40.485Z,22.30
2023-03-05T23:25:08.817Z,22.30
2023-03-05T23:27:36.496Z,22.40
2023-03-05T23:30:16.236Z,22.40
2023-03-05T23:32:50.073Z,22.50
2023-03-05T23:35:18.975Z,22.60
2023-03-05T23:37:46.726Z,22.70
2023-03-05T23:40:16.423Z,22.70
2023-03-05T23:42:44.281Z,22.80
2023-03-05T23:45:12.654Z,22.80
2023-03-05T23:47:40.552Z,22.90
2023-03-05T23:50:13.060Z,23.00
2023-03-05T23:52:41.188Z,23.10
2023-03-05T23:55:09.392Z,23.10
2023-03-05T23:57:37.091Z,23.20
